Normanton, Queensland

3:49 AM EST on July 29, 2014 (GMT +1000)
Normanton (YNTN) Elev 72 ft | 17.68 °S, 141.07 °E | Change Station

Current weather conditions updated 49 minutes ago

Clear
Clear
72 °F
Feels Like 72 °F
N
12
Wind Variable Wind from South
Gusts mph

Today is forecast to be nearly the same temperature as yesterday.

Today
High -- | Low -- °F
--% Chance of Precip.
Yesterday
High -- | Low -- °F
Precip. -- in
7:03 AM 6:21 PM
Waxing Crescent, 3% visible
Pressure 30.01 in
Visibility -9999.0 miles
Clouds
Dew Point 46 °F
Humidity 41%
Rainfall 0.00 in
Snow Depth Not available.
UV Not available.
Pollen Not available.
Air Quality Not available.
Flu Activity Not available.
METAR YNTN 281700Z AUTO 18010KT //// // ////// 22/08 Q1016

More Conditions Fewer Conditions

Pressure 30.01 in
Visibility -9999.0 miles
Clouds
Dew Point 46 °F
Humidity 41%
Rainfall 0.00 in
Snow Depth Not available.
UV Not available.
Pollen Not available.
Air Quality Not available.
Flu Activity Not available.
METAR YNTN 281700Z AUTO 18010KT //// // ////// 22/08 Q1016

More Conditions Fewer Conditions

10-Day Weather Forecast

Almanac

Astronomy

Jul. 29, 2014 Rise Set
Actual Time 7:03 AM EST 6:21 PM EST
Civil Twilight 6:40 AM EST 6:43 PM EST
Nautical Twilight 6:14 AM EST 7:10 PM EST
Astronomical Twilight 5:48 AM EST 7:36 PM EST
Moon 8:13 AM EST (7/29) 8:13 PM EST (7/29)
Length of Visible Light 12h 03m
Length of Day
11h 17m
Tomorrow will be 0m 40s longer.
Waxing Crescent, 3% of the Moon is Illuminated
Jul 28
Waxing Crescent
Aug 3
First Quarter
Aug 10
Full
Aug 17
Last Quarter
Aug 25
New

Yesterday's Extremes

Country Highs Country Lows

Community

WunderPhotos

Upload Photos

1,738,425 photos uploaded!

Nearby

Snow Depth

Not available.

Earthquake Activity

City Distance Mag. Time & Date
No recent earthquake activity has been reported nearby.
Minimum magnitude displayed is 2.5.

Coastal Water Temperatures

Place Temperature
No Stations Reporting

Nearby Weather Stations

There are no personal weather stations in this area.